createdAt,value
2022-09-16T00:03:23.755Z,52.96
2022-09-16T00:07:20.823Z,52.50
2022-09-16T00:11:19.328Z,52.53
2022-09-16T00:15:16.959Z,52.33
2022-09-16T00:19:13.977Z,52.05
2022-09-16T00:23:10.985Z,51.83
2022-09-16T00:27:07.967Z,51.72
2022-09-16T00:31:05.328Z,52.07
2022-09-16T00:35:02.341Z,52.05
2022-09-16T00:38:59.297Z,51.67
2022-09-16T00:42:56.227Z,52.13
2022-09-16T00:46:55.264Z,52.41
2022-09-16T00:51:00.604Z,53.43
2022-09-16T00:55:00.853Z,53.05
2022-09-16T00:59:09.562Z,53.21
2022-09-16T01:03:06.985Z,52.99
2022-09-16T01:07:04.174Z,54.07
2022-09-16T01:11:01.233Z,54.05
2022-09-16T01:14:59.340Z,54.66
2022-09-16T01:19:49.449Z,54.29
2022-09-16T01:24:44.798Z,54.47
2022-09-16T01:29:32.591Z,54.80
2022-09-16T01:33:55.502Z,54.97
2022-09-16T01:38:16.798Z,56.13
2022-09-16T01:42:24.085Z,55.75
2022-09-16T01:46:32.827Z,55.50
2022-09-16T01:50:48.865Z,55.72
2022-09-16T01:55:01.437Z,55.65
2022-09-16T01:59:23.823Z,55.57
2022-09-16T02:03:30.334Z,55.24
2022-09-16T02:07:38.464Z,55.85
2022-09-16T02:11:38.277Z,55.94
2022-09-16T02:15:38.389Z,55.55
2022-09-16T02:19:48.065Z,55.83
2022-09-16T02:23:52.294Z,55.95
2022-09-16T02:27:52.218Z,56.01
2022-09-16T02:31:55.715Z,56.03
2022-09-16T02:35:55.920Z,55.67
2022-09-16T02:40:02.442Z,55.51
2022-09-16T02:43:59.616Z,55.04
2022-09-16T02:48:20.228Z,55.86
2022-09-16T02:52:35.083Z,55.42
2022-09-16T02:56:39.504Z,55.02
2022-09-16T03:00:46.424Z,55.03
2022-09-16T03:04:43.569Z,55.09
2022-09-16T03:08:42.235Z,55.07
2022-09-16T03:13:06.052Z,55.52
2022-09-16T03:17:39.926Z,55.45
2022-09-16T03:22:02.250Z,55.74
2022-09-16T03:26:16.778Z,55.20
2022-09-16T03:30:14.221Z,55.47
2022-09-16T03:34:40.509Z,55.22
2022-09-16T03:38:40.928Z,55.21
2022-09-16T03:42:44.020Z,55.06
2022-09-16T03:46:41.214Z,55.12
2022-09-16T03:50:38.646Z,54.88
2022-09-16T03:54:37.574Z,55.01
2022-09-16T03:58:34.843Z,56.20
2022-09-16T04:02:31.843Z,55.29
2022-09-16T04:06:28.894Z,55.88
2022-09-16T04:10:25.970Z,56.26
2022-09-16T04:14:22.922Z,55.73
2022-09-16T04:18:20.068Z,55.52
2022-09-16T04:22:17.304Z,56.17
2022-09-16T04:26:14.508Z,56.40
2022-09-16T04:30:12.711Z,56.04
2022-09-16T04:34:12.110Z,55.63
2022-09-16T04:38:09.153Z,55.83
2022-09-16T04:42:07.112Z,56.22
2022-09-16T04:46:05.426Z,55.91
2022-09-16T04:50:02.425Z,56.10
2022-09-16T04:54:01.546Z,55.68
2022-09-16T04:58:00.477Z,55.15
2022-09-16T05:01:57.655Z,55.36
2022-09-16T05:05:54.666Z,55.02
2022-09-16T05:09:51.626Z,54.93
2022-09-16T05:13:49.533Z,54.89
2022-09-16T05:17:51.373Z,55.45
2022-09-16T05:21:51.361Z,54.67
2022-09-16T05:25:48.308Z,54.83
2022-09-16T05:29:45.228Z,54.36
2022-09-16T05:33:45.579Z,54.72
2022-09-16T05:37:42.515Z,54.43
2022-09-16T05:41:39.842Z,54.29
2022-09-16T05:45:36.787Z,54.13
2022-09-16T05:49:33.816Z,54.13
2022-09-16T05:53:33.729Z,53.98
2022-09-16T05:57:30.644Z,53.96
2022-09-16T06:01:32.822Z,53.51
2022-09-16T06:05:30.610Z,53.69
2022-09-16T06:09:30.010Z,53.48
2022-09-16T06:13:27.082Z,53.12
2022-09-16T06:17:24.044Z,53.12
2022-09-16T06:21:22.181Z,52.00
2022-09-16T06:25:19.308Z,51.90
2022-09-16T06:29:17.667Z,52.19
2022-09-16T06:33:16.028Z,51.77
2022-09-16T06:37:14.542Z,51.47
2022-09-16T06:41:14.023Z,51.03
2022-09-16T06:45:11.507Z,50.58
2022-09-16T06:49:11.097Z,50.13
2022-09-16T06:53:08.291Z,49.21
2022-09-16T06:57:09.937Z,48.93
2022-09-16T07:01:22.261Z,47.64
2022-09-16T07:05:19.361Z,46.96
2022-09-16T07:09:16.560Z,47.52
2022-09-16T07:13:13.565Z,49.34
2022-09-16T07:17:10.609Z,49.25
2022-09-16T07:21:14.312Z,48.82
2022-09-16T07:25:11.279Z,48.10
2022-09-16T07:29:13.261Z,46.98
2022-09-16T07:33:10.199Z,47.27
2022-09-16T07:37:07.166Z,46.13
2022-09-16T07:41:09.383Z,46.08
2022-09-16T07:45:07.856Z,45.35
2022-09-16T07:49:08.616Z,45.01
2022-09-16T07:53:05.554Z,44.96
2022-09-16T07:57:03.265Z,46.67
2022-09-16T08:01:04.255Z,45.96
2022-09-16T08:05:01.959Z,45.21
2022-09-16T08:09:10.505Z,43.66
2022-09-16T08:13:18.143Z,42.89
2022-09-16T08:17:15.197Z,41.11
2022-09-16T08:21:19.971Z,41.44
2022-09-16T08:25:17.203Z,40.68
2022-09-16T08:29:14.337Z,39.66
2022-09-16T08:33:11.456Z,40.08
2022-09-16T08:37:09.056Z,39.94
2022-09-16T08:41:51.043Z,38.42
2022-09-16T08:46:09.697Z,38.28
2022-09-16T08:50:16.639Z,38.47
2022-09-16T08:54:54.649Z,37.85
2022-09-16T08:58:57.467Z,39.11
2022-09-16T09:03:15.188Z,38.78
2022-09-16T09:07:55.663Z,38.72
2022-09-16T09:12:06.402Z,39.92
2022-09-16T09:16:36.084Z,39.33
2022-09-16T09:21:19.231Z,40.04
2022-09-16T09:25:37.158Z,39.60
2022-09-16T09:30:03.290Z,39.08
2022-09-16T09:34:25.162Z,38.39
2022-09-16T09:39:27.015Z,38.60
2022-09-16T09:43:37.681Z,37.84
2022-09-16T09:47:43.137Z,37.34
2022-09-16T09:51:51.648Z,37.06
2022-09-16T09:55:57.557Z,38.16
2022-09-16T10:00:12.128Z,38.53
2022-09-16T10:04:16.169Z,38.31
2022-09-16T10:08:27.303Z,38.87
2022-09-16T10:12:33.810Z,38.87
2022-09-16T10:16:37.637Z,38.65
2022-09-16T10:20:42.692Z,37.97
2022-09-16T10:24:42.309Z,37.11
2022-09-16T10:28:42.435Z,37.29
2022-09-16T10:33:16.875Z,37.04
2022-09-16T10:37:13.735Z,37.19
2022-09-16T10:41:28.143Z,36.79
2022-09-16T10:45:29.969Z,36.90
2022-09-16T10:49:39.782Z,37.37
2022-09-16T10:53:45.777Z,36.57
2022-09-16T10:57:43.306Z,35.96
2022-09-16T11:02:24.872Z,36.65
2022-09-16T11:06:43.888Z,37.05
2022-09-16T11:11:03.305Z,37.40
2022-09-16T11:15:48.190Z,38.31
2022-09-16T11:19:57.004Z,39.06
2022-09-16T11:24:24.912Z,40.41
2022-09-16T11:29:09.574Z,42.58
2022-09-16T11:33:11.932Z,42.29
2022-09-16T11:37:44.329Z,41.74
2022-09-16T11:42:03.548Z,42.55
2022-09-16T11:46:13.720Z,42.00
2022-09-16T11:50:41.465Z,41.88
2022-09-16T11:54:59.910Z,42.49
2022-09-16T11:59:13.992Z,42.45
2022-09-16T12:03:45.699Z,42.96
2022-09-16T12:08:04.564Z,43.40
2022-09-16T12:12:26.742Z,43.24
2022-09-16T12:16:52.218Z,43.00
2022-09-16T12:21:03.029Z,43.31
2022-09-16T12:25:23.457Z,43.02
2022-09-16T12:29:31.664Z,42.83
2022-09-16T12:33:38.890Z,43.36
2022-09-16T12:37:47.614Z,43.26
2022-09-16T12:42:06.358Z,42.83
2022-09-16T12:46:33.989Z,42.79
2022-09-16T12:50:55.059Z,42.25
2022-09-16T12:55:43.243Z,41.43
2022-09-16T13:00:19.086Z,40.90
2022-09-16T13:04:37.706Z,39.76
2022-09-16T13:08:36.404Z,39.20
2022-09-16T13:12:41.522Z,38.59
2022-09-16T13:16:53.775Z,36.99
2022-09-16T13:21:07.469Z,36.78
2022-09-16T13:25:21.604Z,36.58
2022-09-16T13:29:38.326Z,34.80
2022-09-16T13:33:35.374Z,34.22
2022-09-16T13:37:32.337Z,33.55
2022-09-16T13:41:37.221Z,33.33
2022-09-16T13:45:45.006Z,34.41
2022-09-16T13:49:52.984Z,34.18
2022-09-16T13:53:53.400Z,31.61
2022-09-16T13:58:54.431Z,31.32
2022-09-16T14:03:12.776Z,31.77
2022-09-16T14:07:31.334Z,32.82
2022-09-16T14:11:58.735Z,34.43
2022-09-16T14:16:00.187Z,35.76
2022-09-16T14:20:01.176Z,36.42
2022-09-16T14:24:19.638Z,37.83
2022-09-16T14:28:25.286Z,39.62
2022-09-16T14:32:33.134Z,40.59
2022-09-16T14:36:40.579Z,41.06
2022-09-16T14:40:40.737Z,42.18
2022-09-16T14:44:48.626Z,42.19
2022-09-16T14:48:46.445Z,41.90
2022-09-16T14:53:04.584Z,42.15
2022-09-16T14:57:21.592Z,42.52
2022-09-16T15:01:28.387Z,44.18
2022-09-16T15:05:38.588Z,43.35
2022-09-16T15:09:57.756Z,42.25
2022-09-16T15:13:55.622Z,42.50
2022-09-16T15:18:05.579Z,42.00
2022-09-16T15:22:06.985Z,42.68
2022-09-16T15:26:16.122Z,44.38
2022-09-16T15:30:26.981Z,44.37
2022-09-16T15:34:24.808Z,44.09
2022-09-16T15:38:31.519Z,42.07
2022-09-16T15:42:28.503Z,40.58
2022-09-16T15:46:25.808Z,39.63
2022-09-16T15:50:27.038Z,38.48
2022-09-16T15:54:31.554Z,37.52
2022-09-16T15:58:32.212Z,36.95
2022-09-16T16:02:40.349Z,36.83
2022-09-16T16:06:52.936Z,37.29
2022-09-16T16:11:15.248Z,37.81
2022-09-16T16:15:16.007Z,37.36
2022-09-16T16:19:14.230Z,37.28
2022-09-16T16:23:13.047Z,37.16
2022-09-16T16:27:10.626Z,37.59
2022-09-16T16:31:18.814Z,39.21
2022-09-16T16:35:15.928Z,40.88
2022-09-16T16:39:12.877Z,41.62
2022-09-16T16:43:09.831Z,43.31
2022-09-16T16:47:08.676Z,43.79
2022-09-16T16:51:10.255Z,44.66
2022-09-16T16:55:07.972Z,45.54
2022-09-16T16:59:04.892Z,45.63
2022-09-16T17:03:01.952Z,45.69
2022-09-16T17:07:24.079Z,46.07
2022-09-16T17:11:21.581Z,46.49
2022-09-16T17:15:18.547Z,47.40
2022-09-16T17:19:18.394Z,48.09
2022-09-16T17:23:15.366Z,49.54
2022-09-16T17:27:14.578Z,51.31
2022-09-16T17:31:27.967Z,52.21
2022-09-16T17:35:25.020Z,50.92
2022-09-16T17:39:22.803Z,50.09
2022-09-16T17:43:19.790Z,50.29
2022-09-16T17:47:16.736Z,50.83
2022-09-16T17:51:13.852Z,50.31
2022-09-16T17:55:12.001Z,50.76
2022-09-16T17:59:11.121Z,50.09
2022-09-16T18:03:10.798Z,49.76
2022-09-16T18:07:07.817Z,49.86
2022-09-16T18:11:06.003Z,50.36
2022-09-16T18:15:03.099Z,49.95
2022-09-16T18:19:02.434Z,50.61
2022-09-16T18:22:59.410Z,50.82
2022-09-16T18:26:56.459Z,51.65
2022-09-16T18:31:11.317Z,53.04
2022-09-16T18:35:08.978Z,51.84
2022-09-16T18:39:07.860Z,51.77
2022-09-16T18:43:04.858Z,52.02
2022-09-16T18:47:01.804Z,52.48
2022-09-16T18:50:58.793Z,51.88
2022-09-16T18:54:55.724Z,52.61
2022-09-16T18:59:19.902Z,53.00
2022-09-16T19:03:11.315Z,53.46
2022-09-16T19:07:12.966Z,54.17
2022-09-16T19:11:10.164Z,54.63
2022-09-16T19:15:08.097Z,54.40
2022-09-16T19:19:05.722Z,54.34
2022-09-16T19:23:02.699Z,54.75
2022-09-16T19:26:59.703Z,54.33
2022-09-16T19:31:07.233Z,54.24
2022-09-16T19:35:04.712Z,54.47
2022-09-16T19:39:04.020Z,54.46
2022-09-16T19:43:00.939Z,54.84
2022-09-16T19:46:58.253Z,54.65
2022-09-16T19:50:55.279Z,54.51
2022-09-16T19:54:52.229Z,54.64
2022-09-16T19:58:50.603Z,54.64
2022-09-16T20:02:47.892Z,54.82
2022-09-16T20:06:45.253Z,54.97
2022-09-16T20:10:42.192Z,55.07
2022-09-16T20:14:39.250Z,55.23
2022-09-16T20:18:36.716Z,55.36
2022-09-16T20:22:33.663Z,55.60
2022-09-16T20:26:30.627Z,55.73
2022-09-16T20:30:27.630Z,55.78
2022-09-16T20:34:24.613Z,55.62
2022-09-16T20:38:21.871Z,55.72
2022-09-16T20:42:19.294Z,55.04
2022-09-16T20:46:29.099Z,55.00
2022-09-16T20:50:26.044Z,54.99
2022-09-16T20:54:23.012Z,54.36
2022-09-16T20:58:19.960Z,54.38
2022-09-16T21:02:17.038Z,54.83
2022-09-16T21:06:15.345Z,54.79
2022-09-16T21:10:13.349Z,55.49
2022-09-16T21:14:12.617Z,55.26
2022-09-16T21:18:09.751Z,55.14
2022-09-16T21:22:07.153Z,55.33
2022-09-16T21:26:14.014Z,54.93
2022-09-16T21:30:11.771Z,55.08
2022-09-16T21:34:17.061Z,55.04
2022-09-16T21:38:15.979Z,55.83
2022-09-16T21:42:12.979Z,55.52
2022-09-16T21:46:16.283Z,55.57
2022-09-16T21:50:13.445Z,54.93
2022-09-16T21:54:10.969Z,55.44
2022-09-16T21:58:09.370Z,55.52
2022-09-16T22:02:06.321Z,55.93
2022-09-16T22:06:05.426Z,56.17
2022-09-16T22:10:02.437Z,55.75
2022-09-16T22:14:00.850Z,55.94
2022-09-16T22:17:57.829Z,55.92
2022-09-16T22:21:54.814Z,55.01
2022-09-16T22:25:51.771Z,54.58
2022-09-16T22:29:48.706Z,54.00
2022-09-16T22:33:48.321Z,53.90
2022-09-16T22:37:45.428Z,54.21
2022-09-16T22:41:42.980Z,54.01
2022-09-16T22:45:39.956Z,53.59
2022-09-16T22:49:36.930Z,53.19
2022-09-16T22:53:34.477Z,52.82
2022-09-16T22:57:31.436Z,52.82
2022-09-16T23:01:33.007Z,53.27
2022-09-16T23:05:30.010Z,53.43
2022-09-16T23:09:26.941Z,52.00
2022-09-16T23:13:24.153Z,51.87
2022-09-16T23:17:23.376Z,52.35
2022-09-16T23:21:22.622Z,52.39
2022-09-16T23:25:19.588Z,51.85
2022-09-16T23:29:18.512Z,52.37
2022-09-16T23:33:15.496Z,53.47
2022-09-16T23:37:12.462Z,52.50
2022-09-16T23:41:17.051Z,52.27
2022-09-16T23:45:14.209Z,52.52
2022-09-16T23:49:12.029Z,52.59
2022-09-16T23:53:08.962Z,52.60
2022-09-16T23:57:06.837Z,52.78
